createdAt,value
2023-04-10T00:02:29.035Z,21.98
2023-04-10T00:07:32.246Z,21.96
2023-04-10T00:12:36.665Z,21.99
2023-04-10T00:17:40.930Z,22.00
2023-04-10T00:22:43.761Z,21.97
2023-04-10T00:27:46.471Z,22.02
2023-04-10T00:32:50.697Z,22.01
2023-04-10T00:37:54.594Z,22.01
2023-04-10T00:42:57.455Z,21.99
2023-04-10T00:48:01.600Z,22.04
2023-04-10T00:53:05.785Z,22.05
2023-04-10T00:58:08.556Z,22.05
2023-04-10T01:03:12.838Z,22.05
2023-04-10T01:08:21.581Z,22.00
2023-04-10T01:13:26.689Z,21.93
2023-04-10T01:18:34.301Z,21.94
2023-04-10T01:23:48.805Z,21.95
2023-04-10T01:28:54.524Z,21.95
2023-04-10T01:33:59.525Z,21.96
2023-04-10T01:39:02.332Z,21.96
2023-04-10T01:44:06.651Z,21.99
2023-04-10T01:49:09.442Z,21.99
2023-04-10T01:54:12.377Z,21.99
2023-04-10T01:59:16.764Z,21.98
2023-04-10T02:04:19.645Z,21.98
2023-04-10T02:09:24.921Z,22.01
2023-04-10T02:14:29.443Z,22.00
2023-04-10T02:19:32.470Z,22.01
2023-04-10T02:24:35.236Z,22.04
2023-04-10T02:29:39.536Z,21.99
2023-04-10T02:34:43.770Z,22.01
2023-04-10T02:39:46.565Z,22.02
2023-04-10T02:44:51.411Z,22.03
2023-04-10T02:49:54.410Z,22.04
2023-04-10T02:54:57.287Z,22.02
2023-04-10T03:00:05.288Z,22.03
2023-04-10T03:05:28.862Z,22.01
2023-04-10T03:10:31.756Z,22.02
2023-04-10T03:15:35.925Z,22.02
2023-04-10T03:20:39.452Z,22.04
2023-04-10T03:25:42.311Z,22.05
2023-04-10T03:30:47.194Z,22.09
2023-04-10T03:35:50.135Z,22.11
2023-04-10T03:40:54.024Z,22.10
2023-04-10T03:46:01.657Z,22.07
2023-04-10T03:51:05.113Z,22.04
2023-04-10T03:56:09.307Z,22.00
2023-04-10T04:01:14.033Z,21.95
2023-04-10T04:06:32.217Z,21.88
2023-04-10T04:11:44.297Z,21.82
2023-04-10T04:17:11.248Z,21.73
2023-04-10T04:22:52.181Z,21.78
2023-04-10T04:28:06.961Z,21.70
2023-04-10T04:33:24.144Z,21.65
2023-04-10T04:38:45.544Z,21.65
2023-04-10T04:44:14.210Z,21.56
2023-04-10T04:49:36.923Z,21.52
2023-04-10T04:54:58.670Z,21.48
2023-04-10T05:00:29.970Z,21.40
2023-04-10T05:06:09.459Z,21.34
2023-04-10T05:11:23.691Z,21.32
2023-04-10T05:16:52.414Z,21.24
2023-04-10T05:22:18.536Z,21.17
2023-04-10T05:27:29.604Z,21.11
2023-04-10T05:32:58.550Z,21.07
2023-04-10T05:38:20.714Z,21.04
2023-04-10T05:43:39.685Z,21.02
2023-04-10T05:48:57.653Z,21.00
2023-04-10T05:54:20.344Z,20.98
2023-04-10T05:59:43.458Z,20.95
2023-04-10T06:05:22.085Z,20.90
2023-04-10T06:10:31.021Z,20.88
2023-04-10T06:15:33.900Z,20.86
2023-04-10T06:20:37.043Z,20.82
2023-04-10T06:25:41.724Z,20.82
2023-04-10T06:30:44.587Z,20.79
2023-04-10T06:35:47.733Z,20.78
2023-04-10T06:40:52.299Z,20.76
2023-04-10T06:45:55.039Z,20.73
2023-04-10T06:51:00.424Z,20.71
2023-04-10T06:56:04.994Z,20.72
2023-04-10T07:01:08.015Z,20.75
2023-04-10T07:06:11.316Z,19.87
2023-04-10T07:11:15.563Z,19.25
2023-04-10T07:16:18.545Z,18.88
2023-04-10T07:21:21.360Z,19.22
2023-04-10T07:26:25.484Z,19.56
2023-04-10T07:31:28.375Z,19.86
2023-04-10T07:36:31.868Z,20.10
2023-04-10T07:41:36.256Z,20.26
2023-04-10T07:46:39.253Z,20.37
2023-04-10T07:51:42.038Z,20.47
2023-04-10T07:56:46.170Z,20.55
2023-04-10T08:01:49.090Z,20.58
2023-04-10T08:06:51.904Z,20.60
2023-04-10T08:11:56.007Z,20.63
2023-04-10T08:16:58.794Z,20.63
2023-04-10T08:22:01.584Z,20.67
2023-04-10T08:27:05.763Z,20.67
2023-04-10T08:32:08.557Z,20.69
2023-04-10T08:37:12.302Z,20.70
2023-04-10T08:42:16.450Z,20.72
2023-04-10T08:47:19.611Z,20.71
2023-04-10T08:52:23.721Z,20.76
2023-04-10T08:57:28.016Z,20.75
2023-04-10T09:02:31.060Z,20.76
2023-04-10T09:07:34.100Z,20.76
2023-04-10T09:12:47.441Z,20.75
2023-04-10T09:17:57.571Z,20.77
2023-04-10T09:23:00.600Z,20.79
2023-04-10T09:28:06.790Z,20.79
2023-04-10T09:33:27.460Z,20.80
2023-04-10T09:38:30.400Z,20.81
2023-04-10T09:43:34.576Z,20.78
2023-04-10T09:48:37.556Z,20.80
2023-04-10T09:53:49.470Z,20.83
2023-04-10T09:58:54.006Z,20.85
2023-04-10T10:03:57.174Z,20.85
2023-04-10T10:09:02.860Z,20.84
2023-04-10T10:14:09.271Z,20.85
2023-04-10T10:19:14.384Z,20.86
2023-04-10T10:24:17.387Z,20.88
2023-04-10T10:29:21.685Z,20.91
2023-04-10T10:34:24.689Z,20.89
2023-04-10T10:39:31.921Z,20.86
2023-04-10T10:44:39.923Z,20.96
2023-04-10T10:49:56.363Z,20.99
2023-04-10T10:54:59.779Z,21.04
2023-04-10T11:00:04.343Z,21.11
2023-04-10T11:05:07.801Z,20.93
2023-04-10T11:10:10.758Z,21.03
2023-04-10T11:15:14.891Z,21.12
2023-04-10T11:20:17.807Z,21.11
2023-04-10T11:25:20.549Z,21.17
2023-04-10T11:30:34.218Z,21.02
2023-04-10T11:35:37.027Z,20.93
2023-04-10T11:40:55.393Z,20.86
2023-04-10T11:46:04.144Z,21.01
2023-04-10T11:51:11.391Z,20.99
2023-04-10T11:56:21.112Z,21.18
2023-04-10T12:01:25.454Z,21.19
2023-04-10T12:06:28.638Z,21.11
2023-04-10T12:11:31.644Z,21.06
2023-04-10T12:16:36.053Z,21.14
2023-04-10T12:21:38.927Z,21.17
2023-04-10T12:26:48.499Z,21.19
2023-04-10T12:31:52.676Z,21.21
2023-04-10T12:36:55.725Z,21.24
2023-04-10T12:42:12.094Z,21.27
2023-04-10T12:47:16.216Z,21.33
2023-04-10T12:52:23.601Z,21.33
2023-04-10T12:57:27.280Z,21.35
2023-04-10T13:02:31.653Z,21.39
2023-04-10T13:07:34.620Z,21.43
2023-04-10T13:12:38.772Z,21.39
2023-04-10T13:17:42.912Z,21.52
2023-04-10T13:22:45.782Z,21.57
2023-04-10T13:27:48.539Z,21.65
2023-04-10T13:32:52.719Z,21.77
2023-04-10T13:37:55.772Z,21.82
2023-04-10T13:42:58.543Z,21.90
2023-04-10T13:48:02.704Z,21.93
2023-04-10T13:53:07.354Z,21.97
2023-04-10T13:58:10.178Z,22.05
2023-04-10T14:03:14.461Z,22.09
2023-04-10T14:08:17.365Z,22.14
2023-04-10T14:13:20.196Z,22.14
2023-04-10T14:18:24.371Z,22.22
2023-04-10T14:23:27.139Z,22.28
2023-04-10T14:28:29.870Z,22.29
2023-04-10T14:33:35.025Z,22.33
2023-04-10T14:38:37.973Z,22.40
2023-04-10T14:43:41.197Z,22.46
2023-04-10T14:48:46.283Z,22.51
2023-04-10T14:53:49.185Z,22.60
2023-04-10T14:58:51.970Z,22.70
2023-04-10T15:03:56.336Z,22.75
2023-04-10T15:09:00.279Z,22.78
2023-04-10T15:14:04.442Z,22.82
2023-04-10T15:19:08.581Z,22.82
2023-04-10T15:24:11.341Z,22.80
2023-04-10T15:29:14.174Z,22.84
2023-04-10T15:34:19.024Z,22.85
2023-04-10T15:39:21.885Z,22.86
2023-04-10T15:44:25.022Z,22.87
2023-04-10T15:49:37.201Z,22.88
2023-04-10T15:54:40.891Z,23.06
2023-04-10T15:59:43.815Z,23.11
2023-04-10T16:04:48.165Z,23.23
2023-04-10T16:09:52.353Z,23.30
2023-04-10T16:14:55.214Z,23.32
2023-04-10T16:19:59.854Z,23.69
2023-04-10T16:30:11.840Z,23.55
2023-04-10T16:35:17.693Z,23.65
2023-04-10T16:40:20.733Z,23.62
2023-04-10T16:45:23.510Z,23.54
2023-04-10T16:50:27.651Z,23.51
2023-04-10T16:55:30.398Z,23.44
2023-04-10T17:00:33.203Z,23.38
2023-04-10T17:05:37.344Z,23.25
2023-04-10T17:10:40.138Z,23.08
2023-04-10T17:15:43.029Z,22.94
2023-04-10T17:20:48.298Z,22.84
2023-04-10T17:25:51.354Z,22.72
2023-04-10T17:30:54.208Z,22.65
2023-04-10T17:35:58.334Z,22.56
2023-04-10T17:41:01.098Z,22.46
2023-04-10T17:46:03.876Z,22.37
2023-04-10T17:51:08.529Z,22.33
2023-04-10T17:56:18.296Z,22.26
2023-04-10T18:01:24.528Z,22.16
2023-04-10T18:06:28.709Z,22.11
2023-04-10T18:11:31.504Z,22.10
2023-04-10T18:16:34.318Z,22.11
2023-04-10T18:21:38.624Z,22.09
2023-04-10T18:26:41.485Z,22.09
2023-04-10T18:31:44.279Z,22.09
2023-04-10T18:36:48.437Z,22.09
2023-04-10T18:41:51.332Z,22.07
2023-04-10T18:47:03.332Z,22.06
2023-04-10T18:52:08.373Z,22.10
2023-04-10T18:57:11.568Z,22.07
2023-04-10T19:02:14.589Z,22.04
2023-04-10T19:07:18.957Z,22.06
2023-04-10T19:12:21.823Z,22.07
2023-04-10T19:17:24.929Z,22.10
2023-04-10T19:22:29.178Z,22.09
2023-04-10T19:27:31.939Z,22.13
2023-04-10T19:32:34.721Z,22.13
2023-04-10T19:37:39.116Z,22.15
2023-04-10T19:42:41.891Z,22.13
2023-04-10T19:47:44.762Z,22.16
2023-04-10T19:52:49.112Z,22.15
2023-04-10T19:57:51.853Z,22.18
2023-04-10T20:02:54.913Z,22.18
2023-04-10T20:07:59.435Z,22.22
2023-04-10T20:13:02.278Z,22.20
2023-04-10T20:18:05.185Z,22.19
2023-04-10T20:23:09.569Z,22.24
2023-04-10T20:28:12.424Z,22.26
2023-04-10T20:33:15.457Z,22.28
2023-04-10T20:38:20.300Z,22.26
2023-04-10T20:43:23.079Z,22.29
2023-04-10T20:48:25.983Z,22.28
2023-04-10T20:53:30.314Z,22.29
2023-04-10T20:58:33.804Z,22.32
2023-04-10T21:03:36.690Z,22.30
2023-04-10T21:08:41.005Z,22.33
2023-04-10T21:13:43.794Z,22.30
2023-04-10T21:18:47.421Z,22.31
2023-04-10T21:23:51.599Z,22.32
2023-04-10T21:28:54.520Z,22.31
2023-04-10T21:33:57.407Z,22.33
2023-04-10T21:39:01.542Z,22.35
2023-04-10T21:44:04.301Z,22.33
2023-04-10T21:49:07.132Z,22.39
2023-04-10T21:54:11.419Z,22.35
2023-04-10T21:59:14.179Z,22.34
2023-04-10T22:04:17.153Z,22.40
2023-04-10T22:09:21.390Z,22.44
2023-04-10T22:14:25.513Z,22.39
2023-04-10T22:19:28.367Z,22.35
2023-04-10T22:24:35.200Z,22.39
2023-04-10T22:29:38.169Z,22.39
2023-04-10T22:34:41.069Z,22.41
2023-04-10T22:39:45.304Z,22.40
2023-04-10T22:44:48.068Z,22.36
2023-04-10T22:49:50.975Z,22.30
2023-04-10T22:54:55.143Z,22.29
2023-04-10T23:00:00.404Z,22.22
2023-04-10T23:05:03.512Z,22.16
2023-04-10T23:10:09.408Z,22.14
2023-04-10T23:15:12.405Z,22.08
2023-04-10T23:20:15.259Z,22.02
2023-04-10T23:25:19.463Z,21.99
2023-04-10T23:30:22.278Z,21.96
2023-04-10T23:35:25.109Z,21.92
2023-04-10T23:40:29.332Z,21.91
2023-04-10T23:45:32.116Z,21.85
2023-04-10T23:50:34.883Z,21.86
2023-04-10T23:55:39.724Z,21.81
